Terminal Aerodrome Forecast
Issued by NWS

Current Version | Previous Version | Graphics & Text | Print | Product List | Glossary On
Versions: 1 2 3 4 5 6 7 8 9 10 11 12 13 14 15 16 17 18 19 20 21 22 23 24
621
FTUS41 KILN 280528
TAFLCK
TAF
KLCK 280528Z 2806/2906 26003KT P6SM FEW250
     FM281300 13004KT P6SM SCT180
     FM290100 12007KT P6SM OVC060
     FM290500 15008KT P6SM OVC045=

USA.gov is the U.S. government's official web portal to all federal, state and local government web resources and services.